Time;durP1;ratioP1;P1;durP2;ratioP2;P2;SDS_P1;SDS_P2;PMS_P1;PMS_P2;Temp;Humidity;BMP_temperature;BMP_pressure;BME280_temperature;BME280_humidity;BME280_pressure;Samples;Min_cycle;Max_cycle;Signal;HPM_P1;HPM_P2
2023/04/24 00:00:33;;;;;;;1.00;0.90;;;13.30;99.90;;;;;;5037936;28;20176;-71
2023/04/24 00:02:58;;;;;;;3.27;1.10;;;13.40;99.90;;;;;;5055155;28;20167;-72
2023/04/24 00:05:24;;;;;;;1.67;0.80;;;13.40;99.90;;;;;;5055358;28;20191;-72
2023/04/24 00:07:54;;;;;;;2.00;0.80;;;13.40;99.90;;;;;;5055174;28;20190;-72
2023/04/24 00:10:19;;;;;;;1.60;0.80;;;13.50;99.90;;;;;;5055161;28;20169;-72
2023/04/24 00:12:45;;;;;;;1.70;1.10;;;13.40;99.90;;;;;;5055052;28;20503;-72
2023/04/24 00:15:11;;;;;;;0.90;0.80;;;13.50;99.90;;;;;;5053158;28;20203;-72
2023/04/24 00:17:37;;;;;;;3.67;0.87;;;13.50;99.90;;;;;;5053540;28;20178;-72
2023/04/24 00:20:04;;;;;;;1.83;1.07;;;13.60;99.90;;;;;;5054955;28;20414;-72
2023/04/24 00:22:30;;;;;;;1.27;0.90;;;13.50;99.90;;;;;;5053579;28;20439;-72
2023/04/24 00:24:56;;;;;;;1.63;0.80;;;13.50;99.90;;;;;;5036012;28;20432;-72
2023/04/24 00:27:22;;;;;;;1.10;1.00;;;13.50;99.90;;;;;;5035207;28;20412;-71
2023/04/24 00:29:48;;;;;;;1.17;0.83;;;13.40;99.90;;;;;;5035039;28;20196;-72
2023/04/24 00:32:13;;;;;;;2.40;1.10;;;13.50;99.90;;;;;;5051109;28;20219;-72
2023/04/24 00:34:40;;;;;;;2.23;0.90;;;13.40;99.90;;;;;;5076364;23;20724;-73
2023/04/24 00:37:05;;;;;;;2.23;1.00;;;13.60;99.90;;;;;;5055084;28;20171;-75
2023/04/24 00:39:31;;;;;;;2.63;1.30;;;13.70;99.90;;;;;;5054696;28;20771;-75
2023/04/24 00:41:57;;;;;;;1.63;0.87;;;13.70;99.90;;;;;;5054491;28;20173;-75
2023/04/24 00:44:23;;;;;;;2.70;1.10;;;13.60;99.90;;;;;;5053247;28;20716;-75
2023/04/24 00:46:54;;;;;;;1.67;0.70;;;13.60;99.90;;;;;;5053390;28;20637;-74
2023/04/24 00:49:21;;;;;;;2.60;0.90;;;13.60;99.90;;;;;;5054387;28;20437;-75
2023/04/24 00:51:47;;;;;;;1.73;0.80;;;13.70;99.90;;;;;;5054396;28;20411;-75
2023/04/24 00:54:13;;;;;;;1.37;0.70;;;13.80;99.90;;;;;;5054244;28;20981;-74
2023/04/24 00:56:40;;;;;;;1.53;1.00;;;13.80;99.90;;;;;;5054095;28;20271;-75
2023/04/24 00:59:06;;;;;;;3.37;0.90;;;13.70;99.90;;;;;;5054592;28;20160;-74
2023/04/24 01:01:32;;;;;;;1.43;1.07;;;13.60;99.90;;;;;;5054284;28;20411;-75
2023/04/24 01:03:58;;;;;;;0.90;0.73;;;13.60;99.90;;;;;;5054083;28;20431;-75
2023/04/24 01:06:28;;;;;;;1.00;0.77;;;13.70;99.90;;;;;;5053039;28;20448;-74
2023/04/24 01:08:54;;;;;;;1.57;1.13;;;13.80;99.90;;;;;;5054126;28;20447;-75
2023/04/24 01:11:21;;;;;;;1.50;1.00;;;13.60;99.90;;;;;;5054608;28;20417;-76
2023/04/24 01:13:47;;;;;;;2.13;1.00;;;13.60;99.90;;;;;;5055121;28;20822;-75
2023/04/24 01:16:17;;;;;;;1.13;0.73;;;13.60;99.90;;;;;;5052555;28;20462;-75
2023/04/24 01:18:43;;;;;;;1.37;0.97;;;13.50;99.90;;;;;;5053659;28;20398;-75
2023/04/24 01:21:11;;;;;;;1.77;1.00;;;13.60;99.90;;;;;;5053666;28;20431;-76
2023/04/24 01:23:37;;;;;;;1.00;0.70;;;13.60;99.90;;;;;;5053565;28;20407;-74
2023/04/24 01:26:02;;;;;;;1.27;0.87;;;13.60;99.90;;;;;;5053481;28;20471;-73
2023/04/24 01:28:28;;;;;;;1.30;1.20;;;13.60;99.90;;;;;;5053812;28;20182;-74
2023/04/24 01:30:54;;;;;;;1.87;1.00;;;13.60;99.90;;;;;;5046539;28;20276;-75
2023/04/24 01:33:21;;;;;;;1.70;0.87;;;13.80;99.90;;;;;;5031950;28;20716;-75
2023/04/24 01:35:48;;;;;;;1.70;0.90;;;13.80;99.90;;;;;;5033263;28;20713;-74
2023/04/24 01:38:13;;;;;;;1.10;0.90;;;13.80;99.90;;;;;;5033190;28;20444;-75
2023/04/24 01:40:39;;;;;;;1.40;0.70;;;13.70;99.90;;;;;;5033223;28;20411;-75
2023/04/24 01:43:05;;;;;;;2.20;0.97;;;13.70;99.90;;;;;;5048700;28;20169;-75
2023/04/24 01:45:30;;;;;;;2.00;1.10;;;13.70;99.90;;;;;;5031877;28;20300;-75
2023/04/24 01:47:57;;;;;;;1.90;0.80;;;13.50;99.90;;;;;;5031667;28;20269;-75
2023/04/24 01:50:22;;;;;;;1.47;0.90;;;13.60;99.90;;;;;;5033116;28;20181;-76
2023/04/24 01:52:48;;;;;;;1.93;0.90;;;13.60;99.90;;;;;;5033061;28;20413;-75
2023/04/24 01:55:14;;;;;;;3.27;1.03;;;13.60;99.90;;;;;;5032727;28;20442;-76
2023/04/24 01:57:40;;;;;;;1.10;1.00;;;13.60;99.90;;;;;;5033147;28;20186;-76
2023/04/24 02:00:07;;;;;;;0.97;0.87;;;13.60;99.90;;;;;;5033462;28;20167;-76
2023/04/24 02:02:32;;;;;;;1.57;1.20;;;13.60;99.90;;;;;;5034322;28;20475;-75
2023/04/24 02:04:58;;;;;;;2.07;1.00;;;13.50;99.90;;;;;;5034362;28;20432;-74
2023/04/24 02:07:23;;;;;;;1.83;1.30;;;13.60;99.90;;;;;;5036518;28;20170;-75
2023/04/24 02:09:49;;;;;;;2.97;0.80;;;13.60;99.90;;;;;;5036311;28;20176;-75
2023/04/24 02:12:15;;;;;;;2.50;1.10;;;13.50;99.90;;;;;;5035951;28;20227;-75
2023/04/24 02:14:42;;;;;;;2.80;0.90;;;13.50;99.90;;;;;;5034455;28;20197;-75
2023/04/24 02:17:07;;;;;;;1.43;1.00;;;13.40;99.90;;;;;;5033529;28;20467;-75
2023/04/24 02:19:33;;;;;;;2.53;0.93;;;13.30;99.90;;;;;;5031954;28;20541;-76
2023/04/24 02:21:59;;;;;;;2.80;1.13;;;13.40;99.90;;;;;;5032661;28;20178;-75
2023/04/24 02:24:24;;;;;;;1.60;1.30;;;13.30;99.90;;;;;;5046166;28;20544;-75
2023/04/24 02:26:50;;;;;;;2.13;0.93;;;13.30;99.90;;;;;;5052580;28;20224;-76
2023/04/24 02:29:15;;;;;;;3.17;1.00;;;13.20;99.90;;;;;;5052899;28;20171;-76
2023/04/24 02:31:41;;;;;;;1.30;1.03;;;13.10;99.90;;;;;;5052624;28;20176;-76
2023/04/24 02:34:07;;;;;;;1.53;1.13;;;13.00;99.90;;;;;;5067669;28;20177;-76
2023/04/24 02:36:32;;;;;;;1.37;0.90;;;13.00;99.90;;;;;;5067702;28;20747;-76
2023/04/24 02:38:58;;;;;;;4.10;1.00;;;13.10;99.90;;;;;;5052266;28;20199;-75
2023/04/24 02:41:23;;;;;;;1.20;0.77;;;13.20;99.90;;;;;;5052610;28;20273;-76
2023/04/24 02:43:49;;;;;;;1.00;0.70;;;13.20;99.90;;;;;;5052700;28;20661;-76
2023/04/24 02:46:15;;;;;;;1.03;0.60;;;13.30;99.90;;;;;;5052094;28;20204;-76
2023/04/24 02:48:40;;;;;;;0.90;0.80;;;13.40;99.90;;;;;;5052380;28;20167;-76
2023/04/24 02:51:06;;;;;;;1.70;0.93;;;13.20;99.90;;;;;;5052550;28;20192;-76
2023/04/24 02:53:32;;;;;;;3.00;1.23;;;13.40;99.90;;;;;;5067858;28;20181;-76
2023/04/24 02:55:57;;;;;;;1.57;1.00;;;13.40;99.90;;;;;;5052394;28;20556;-76
2023/04/24 02:58:23;;;;;;;2.50;1.30;;;13.40;99.90;;;;;;5052559;28;20287;-75
2023/04/24 03:00:52;;;;;;;1.70;0.97;;;13.50;99.90;;;;;;5052839;28;20184;-74
2023/04/24 03:03:18;;;;;;;1.10;0.93;;;13.60;99.90;;;;;;5052350;28;20296;-75
2023/04/24 03:05:43;;;;;;;1.50;1.10;;;13.50;99.90;;;;;;5052193;28;20507;-76
2023/04/24 03:08:10;;;;;;;2.07;1.10;;;13.60;99.90;;;;;;5070202;28;20180;-75
2023/04/24 03:10:35;;;;;;;2.00;1.03;;;13.50;99.90;;;;;;5056136;28;20223;-74
2023/04/24 03:13:01;;;;;;;1.60;0.70;;;13.30;99.90;;;;;;5056087;28;20775;-76
2023/04/24 03:15:27;;;;;;;0.97;0.80;;;13.20;99.90;;;;;;5055795;28;20224;-76
2023/04/24 03:17:52;;;;;;;1.30;1.20;;;13.20;99.90;;;;;;5056236;28;20604;-75
2023/04/24 03:20:18;;;;;;;1.30;0.97;;;13.00;99.90;;;;;;5056375;28;20167;-75
2023/04/24 03:22:43;;;;;;;1.10;0.90;;;13.00;99.90;;;;;;5056108;28;20195;-75
2023/04/24 03:25:09;;;;;;;1.60;1.00;;;12.90;99.90;;;;;;5071303;28;20236;-74
2023/04/24 03:27:35;;;;;;;1.00;0.70;;;12.80;99.90;;;;;;5056155;28;20159;-75
2023/04/24 03:30:01;;;;;;;1.90;1.20;;;12.80;99.90;;;;;;5055867;28;20414;-75
2023/04/24 03:32:26;;;;;;;1.30;0.93;;;12.40;99.90;;;;;;5055394;28;20175;-75
2023/04/24 03:34:53;;;;;;;2.40;1.10;;;12.40;99.90;;;;;;5055507;28;20458;-75
2023/04/24 03:37:18;;;;;;;1.43;0.90;;;12.50;99.90;;;;;;5056091;28;20157;-76
2023/04/24 03:39:44;;;;;;;1.70;1.10;;;12.60;99.90;;;;;;5058838;28;20451;-75
2023/04/24 03:42:09;;;;;;;2.93;1.20;;;12.70;99.90;;;;;;5035645;28;20170;-76
2023/04/24 03:44:36;;;;;;;1.43;0.70;;;12.70;99.90;;;;;;5035523;28;20160;-75
2023/04/24 03:47:01;;;;;;;2.60;1.20;;;12.90;99.90;;;;;;5050410;28;20543;-75
2023/04/24 03:49:27;;;;;;;1.93;0.90;;;12.90;99.90;;;;;;5035626;28;20403;-75
2023/04/24 03:51:53;;;;;;;0.83;0.70;;;13.00;99.90;;;;;;5044164;28;20225;-75
2023/04/24 03:54:19;;;;;;;1.70;1.10;;;12.90;99.90;;;;;;5055171;28;20182;-76
2023/04/24 03:56:45;;;;;;;2.00;1.13;;;12.90;99.90;;;;;;5055157;28;20174;-75
2023/04/24 03:59:11;;;;;;;1.47;0.90;;;12.80;99.90;;;;;;5055166;28;20502;-75
2023/04/24 04:01:37;;;;;;;3.33;1.33;;;12.80;99.90;;;;;;5054842;28;20405;-75
2023/04/24 04:04:06;;;;;;;1.27;1.17;;;12.60;99.90;;;;;;5055182;28;20189;-75
2023/04/24 04:06:32;;;;;;;1.70;0.83;;;12.50;99.90;;;;;;5054877;28;20786;-76
2023/04/24 04:08:58;;;;;;;1.50;1.10;;;12.50;99.90;;;;;;5055256;28;20409;-74
2023/04/24 04:11:24;;;;;;;1.63;1.10;;;12.30;99.90;;;;;;5055366;28;20172;-76
2023/04/24 04:13:50;;;;;;;1.03;0.83;;;12.20;99.90;;;;;;5055816;28;20405;-76
2023/04/24 04:16:17;;;;;;;1.70;0.97;;;12.20;99.90;;;;;;5055287;28;20425;-76
2023/04/24 04:18:43;;;;;;;1.17;0.80;;;12.20;99.90;;;;;;5049147;28;20196;-75
2023/04/24 04:21:08;;;;;;;1.30;0.77;;;12.30;99.90;;;;;;5055092;28;20407;-76
2023/04/24 04:23:34;;;;;;;1.20;0.93;;;12.40;99.90;;;;;;5054762;28;20404;-76
2023/04/24 04:26:00;;;;;;;2.20;1.33;;;12.50;99.90;;;;;;5054504;28;20175;-76
2023/04/24 04:28:26;;;;;;;1.23;0.70;;;12.50;99.90;;;;;;5053134;28;20403;-75
2023/04/24 04:30:55;;;;;;;2.03;1.10;;;12.40;99.90;;;;;;5054654;28;20916;-76
2023/04/24 04:33:21;;;;;;;2.10;1.10;;;12.50;99.90;;;;;;5053067;28;20318;-76
2023/04/24 04:35:48;;;;;;;1.57;0.80;;;12.30;99.90;;;;;;5054518;28;20441;-76
2023/04/24 04:38:14;;;;;;;1.60;1.20;;;12.10;99.90;;;;;;5053028;28;20462;-75
2023/04/24 04:40:41;;;;;;;1.17;1.07;;;12.00;99.90;;;;;;5052988;28;20440;-76
2023/04/24 04:43:06;;;;;;;1.13;1.03;;;11.90;99.90;;;;;;5053437;28;20933;-76
2023/04/24 04:45:32;;;;;;;1.23;0.90;;;11.90;99.90;;;;;;5055308;28;20432;-76
2023/04/24 04:48:00;;;;;;;1.63;1.53;;;11.80;99.90;;;;;;5054301;28;20205;-76
2023/04/24 04:50:26;;;;;;;1.80;1.10;;;11.60;99.90;;;;;;5053163;28;20929;-75
2023/04/24 04:52:52;;;;;;;2.27;1.07;;;11.60;99.90;;;;;;5054048;28;20917;-75
2023/04/24 04:55:19;;;;;;;1.63;1.43;;;11.50;99.90;;;;;;5055402;28;20458;-75
2023/04/24 04:57:46;;;;;;;1.40;1.30;;;11.60;99.90;;;;;;5054015;28;20166;-74
2023/04/24 05:00:12;;;;;;;1.37;1.27;;;11.80;99.90;;;;;;5054083;28;20399;-76
2023/04/24 05:02:41;;;;;;;1.43;1.10;;;11.70;99.90;;;;;;5052528;28;20453;-76
2023/04/24 05:05:07;;;;;;;1.23;1.13;;;11.90;99.90;;;;;;5054417;28;20488;-75
2023/04/24 05:07:33;;;;;;;1.80;1.40;;;11.90;99.90;;;;;;5052696;28;20405;-75
2023/04/24 05:09:58;;;;;;;1.63;1.27;;;11.90;99.90;;;;;;5052380;28;20444;-75
2023/04/24 05:12:24;;;;;;;3.90;1.40;;;11.80;99.90;;;;;;5053943;28;20181;-75
2023/04/24 05:14:50;;;;;;;1.40;1.30;;;11.80;99.90;;;;;;5054162;28;20194;-75
2023/04/24 05:17:16;;;;;;;1.60;1.50;;;11.90;99.90;;;;;;5054279;28;20254;-75
2023/04/24 05:19:41;;;;;;;1.40;0.93;;;11.90;99.90;;;;;;5053063;28;20214;-75
2023/04/24 05:22:07;;;;;;;2.97;1.50;;;11.90;99.90;;;;;;5050829;28;20413;-75
2023/04/24 05:24:34;;;;;;;1.77;1.50;;;12.00;99.90;;;;;;5045855;28;20541;-74
2023/04/24 05:26:59;;;;;;;1.77;1.67;;;11.90;99.90;;;;;;5034284;28;20167;-75
2023/04/24 05:29:26;;;;;;;1.33;1.23;;;11.90;99.90;;;;;;5033111;28;20402;-75
2023/04/24 05:31:52;;;;;;;2.50;1.20;;;12.00;99.90;;;;;;5044875;28;20175;-76
2023/04/24 05:34:18;;;;;;;1.80;1.50;;;12.10;99.90;;;;;;5053091;28;20457;-75
2023/04/24 05:36:43;;;;;;;1.50;1.40;;;12.00;99.90;;;;;;5068532;28;20848;-75
2023/04/24 05:39:09;;;;;;;2.77;1.37;;;12.00;99.90;;;;;;5068765;28;20292;-74
2023/04/24 05:41:34;;;;;;;2.53;1.30;;;12.10;99.90;;;;;;5053499;28;20272;-74
2023/04/24 05:44:00;;;;;;;2.10;1.40;;;12.00;99.90;;;;;;5053895;28;20171;-74
2023/04/24 05:46:26;;;;;;;1.30;1.20;;;12.00;99.90;;;;;;5054016;28;20186;-74
2023/04/24 05:48:51;;;;;;;1.70;1.60;;;11.90;99.90;;;;;;5054510;28;20272;-75
2023/04/24 05:51:17;;;;;;;2.20;1.70;;;12.00;99.90;;;;;;5054075;28;20170;-75
2023/04/24 05:53:42;;;;;;;1.90;1.50;;;12.00;99.90;;;;;;5055112;28;20638;-75
2023/04/24 05:56:08;;;;;;;2.33;1.30;;;12.00;99.90;;;;;;5056180;28;20198;-75
2023/04/24 05:58:34;;;;;;;1.93;1.20;;;12.00;99.90;;;;;;5054411;28;20199;-75
2023/04/24 06:01:01;;;;;;;1.60;1.50;;;12.10;99.90;;;;;;5053404;28;20167;-74
2023/04/24 06:03:27;;;;;;;2.20;1.50;;;12.20;99.90;;;;;;5053375;28;20168;-75
2023/04/24 06:05:53;;;;;;;2.03;1.50;;;12.20;99.90;;;;;;5053209;28;20436;-75
2023/04/24 06:08:18;;;;;;;4.83;1.47;;;12.40;99.90;;;;;;5052221;28;20430;-74
2023/04/24 06:10:44;;;;;;;1.93;1.60;;;12.30;99.90;;;;;;5053547;28;20199;-75
2023/04/24 06:13:09;;;;;;;1.87;1.30;;;12.30;99.90;;;;;;5053742;28;20169;-75
2023/04/24 06:15:35;;;;;;;2.50;1.70;;;12.20;99.90;;;;;;5050280;28;20202;-74
2023/04/24 06:18:01;;;;;;;2.23;1.50;;;12.10;99.90;;;;;;5051350;28;20242;-75
2023/04/24 06:20:26;;;;;;;3.83;1.93;;;12.20;99.90;;;;;;5053637;28;20163;-75
2023/04/24 06:22:52;;;;;;;2.77;1.80;;;12.30;99.90;;;;;;5034991;28;20189;-74
2023/04/24 06:25:18;;;;;;;4.03;2.00;;;12.40;99.90;;;;;;5033166;28;20195;-75
2023/04/24 06:27:44;;;;;;;1.83;1.70;;;12.40;99.90;;;;;;5032961;28;20183;-74
2023/04/24 06:30:10;;;;;;;1.67;1.57;;;12.50;99.90;;;;;;5032651;28;20409;-74
2023/04/24 06:32:36;;;;;;;2.00;1.90;;;12.60;99.90;;;;;;5032449;28;20185;-75
2023/04/24 06:35:02;;;;;;;2.97;1.80;;;12.70;99.90;;;;;;5033269;28;20866;-74
2023/04/24 06:37:27;;;;;;;3.00;2.03;;;12.70;99.90;;;;;;5032854;28;20237;-73
2023/04/24 06:39:53;;;;;;;2.60;2.20;;;12.70;99.90;;;;;;5033062;28;20679;-74
2023/04/24 06:42:20;;;;;;;2.33;2.00;;;12.80;99.90;;;;;;5032985;28;20203;-74
2023/04/24 06:44:46;;;;;;;2.10;1.90;;;12.70;99.90;;;;;;5036648;28;20582;-74
2023/04/24 06:47:13;;;;;;;4.70;1.90;;;12.80;99.90;;;;;;5036378;28;20427;-75
2023/04/24 06:49:40;;;;;;;3.10;2.60;;;13.00;99.90;;;;;;5036492;28;20178;-74
2023/04/24 06:52:06;;;;;;;3.97;2.30;;;13.00;99.90;;;;;;5033484;28;20444;-73
2023/04/24 06:54:32;;;;;;;2.37;2.17;;;13.30;99.90;;;;;;5035514;28;20856;-74
2023/04/24 06:56:58;;;;;;;2.57;1.90;;;13.50;99.90;;;;;;5036286;28;20484;-74
2023/04/24 06:59:24;;;;;;;2.67;1.97;;;13.50;99.90;;;;;;5034926;28;20456;-77
2023/04/24 07:01:53;;;;;;;2.20;2.00;;;13.40;99.90;;;;;;5047389;28;20408;-74
2023/04/24 07:04:19;;;;;;;2.60;2.40;;;13.40;99.90;;;;;;5056252;28;20397;-74
2023/04/24 07:06:48;;;;;;;3.43;2.20;;;13.30;99.90;;;;;;5056534;28;20408;-75
2023/04/24 07:09:15;;;;;;;2.50;2.20;;;13.50;99.90;;;;;;5056752;28;20168;-76
2023/04/24 07:11:41;;;;;;;3.17;2.30;;;13.50;99.90;;;;;;5071761;28;20420;-74
2023/04/24 07:14:07;;;;;;;2.63;2.37;;;13.40;99.90;;;;;;5056140;28;20428;-73
2023/04/24 07:16:33;;;;;;;2.67;1.73;;;13.50;99.90;;;;;;5055748;28;20571;-74
2023/04/24 07:18:58;;;;;;;6.27;2.07;;;13.80;99.90;;;;;;5071801;28;20259;-74
2023/04/24 07:21:24;;;;;;;2.43;1.70;;;13.60;99.90;;;;;;5056667;28;20170;-74
2023/04/24 07:23:50;;;;;;;2.40;2.10;;;13.40;99.90;;;;;;5056166;28;20162;-75
2023/04/24 07:26:15;;;;;;;2.23;2.03;;;13.40;99.90;;;;;;5071339;28;20427;-78
2023/04/24 07:28:41;;;;;;;4.00;1.60;;;13.10;99.90;;;;;;5056461;28;20173;-77
2023/04/24 07:31:08;;;;;;;1.97;1.77;;;13.00;99.90;;;;;;5071167;28;20179;-75
2023/04/24 07:33:33;;;;;;;2.50;1.80;;;12.90;99.90;;;;;;5055667;28;20178;-74
2023/04/24 07:36:00;;;;;;;1.90;1.70;;;12.90;99.90;;;;;;5054378;28;20456;-74
2023/04/24 07:38:25;;;;;;;3.40;2.10;;;13.00;99.90;;;;;;5055850;28;20803;-74
2023/04/24 07:40:51;;;;;;;4.40;2.80;;;13.20;99.90;;;;;;5055660;28;20462;-74
2023/04/24 07:43:17;;;;;;;1.50;1.40;;;13.40;99.90;;;;;;5055338;28;20169;-74
2023/04/24 07:45:43;;;;;;;2.03;1.50;;;13.40;99.90;;;;;;5051773;28;20416;-73
2023/04/24 07:48:10;;;;;;;2.47;1.70;;;13.70;99.90;;;;;;5053565;28;20935;-74
2023/04/24 07:50:36;;;;;;;2.23;1.97;;;13.80;99.90;;;;;;5054311;28;20427;-73
2023/04/24 07:53:01;;;;;;;4.17;1.90;;;13.80;99.90;;;;;;5055428;28;20797;-72
2023/04/24 07:55:27;;;;;;;3.80;2.50;;;13.90;99.90;;;;;;5055289;28;20427;-72
2023/04/24 07:57:53;;;;;;;2.50;1.70;;;14.20;99.90;;;;;;5055163;28;20177;-73
2023/04/24 08:00:19;;;;;;;1.77;1.50;;;14.20;99.90;;;;;;5055325;28;20175;-75
2023/04/24 08:02:45;;;;;;;1.93;1.67;;;14.30;99.90;;;;;;5054789;28;20181;-75
2023/04/24 08:05:10;;;;;;;1.93;1.80;;;14.30;99.90;;;;;;5055489;28;20420;-75
2023/04/24 08:07:36;;;;;;;2.60;1.63;;;14.30;99.90;;;;;;5055609;28;20169;-77
2023/04/24 08:10:02;;;;;;;3.63;2.20;;;14.00;99.90;;;;;;5055035;28;20172;-75
2023/04/24 08:12:29;;;;;;;2.73;1.83;;;14.00;99.90;;;;;;5055373;28;20568;-75
2023/04/24 08:14:54;;;;;;;2.73;1.77;;;14.00;99.90;;;;;;5070586;28;20839;-77
2023/04/24 08:17:20;;;;;;;3.40;1.90;;;14.00;99.90;;;;;;5055107;28;20404;-73
2023/04/24 08:19:48;;;;;;;2.07;1.80;;;14.00;99.90;;;;;;5055842;28;20192;-74
2023/04/24 08:22:14;;;;;;;1.77;1.67;;;13.90;99.90;;;;;;5053308;28;20205;-74
2023/04/24 08:24:40;;;;;;;2.07;1.40;;;13.90;99.90;;;;;;5055027;28;20427;-75
2023/04/24 08:27:05;;;;;;;1.83;1.30;;;13.90;99.90;;;;;;5053668;28;20407;-74
2023/04/24 08:29:32;;;;;;;2.57;2.10;;;13.90;99.90;;;;;;5033700;28;20172;-74
2023/04/24 08:31:57;;;;;;;2.53;2.30;;;13.90;99.90;;;;;;5047124;28;20180;-72
2023/04/24 08:34:23;;;;;;;3.50;1.57;;;14.00;99.90;;;;;;5054961;28;20412;-74
2023/04/24 08:36:49;;;;;;;1.43;1.33;;;14.00;99.90;;;;;;5054489;28;20204;-76
2023/04/24 08:39:15;;;;;;;2.30;1.50;;;13.80;99.90;;;;;;5055822;28;20217;-76
2023/04/24 08:41:42;;;;;;;3.37;1.23;;;13.90;99.90;;;;;;5056231;28;20254;-76
2023/04/24 08:44:09;;;;;;;2.53;1.50;;;14.00;99.90;;;;;;5054921;28;20418;-73
2023/04/24 08:46:36;;;;;;;1.73;1.60;;;14.10;99.90;;;;;;5054572;28;20435;-74
2023/04/24 08:49:02;;;;;;;3.40;1.93;;;14.00;99.90;;;;;;5054730;28;20472;-73
2023/04/24 08:51:30;;;;;;;2.70;1.60;;;13.90;99.90;;;;;;5055041;28;20819;-72
2023/04/24 08:53:57;;;;;;;2.90;2.40;;;13.60;99.90;;;;;;5055457;28;20168;-74
2023/04/24 08:56:23;;;;;;;2.27;2.07;;;13.40;99.90;;;;;;5071611;28;20435;-76
2023/04/24 08:58:53;;;;;;;2.10;1.50;;;13.40;99.90;;;;;;5055528;28;20448;-76
2023/04/24 09:01:20;;;;;;;2.43;2.20;;;13.40;99.90;;;;;;5057177;28;20401;-76
2023/04/24 09:03:48;;;;;;;3.63;1.90;;;13.50;99.90;;;;;;5054841;28;20403;-74
2023/04/24 09:06:15;;;;;;;3.20;1.83;;;13.40;99.90;;;;;;5054835;28;20427;-74
2023/04/24 09:08:43;;;;;;;3.40;1.93;;;13.50;99.90;;;;;;5055431;28;20403;-76
2023/04/24 09:11:09;;;;;;;2.13;1.80;;;13.60;99.90;;;;;;5055755;28;20404;-75
2023/04/24 09:13:35;;;;;;;1.90;1.80;;;13.60;99.90;;;;;;5054822;28;20906;-72
2023/04/24 09:16:01;;;;;;;1.87;1.57;;;13.40;99.90;;;;;;5058977;28;20431;-73
2023/04/24 09:18:27;;;;;;;2.60;2.03;;;13.20;99.90;;;;;;5058969;28;20213;-73
2023/04/24 09:21:01;;;;;;;3.50;1.90;;;13.30;99.90;;;;;;5058011;28;20178;-73
2023/04/24 09:23:31;;;;;;;3.10;2.50;;;13.20;99.90;;;;;;5054584;28;20842;-75
2023/04/24 09:25:57;;;;;;;3.13;2.40;;;12.90;99.90;;;;;;5070926;28;20427;-74
2023/04/24 09:28:35;;;;;;;2.47;1.70;;;12.90;99.90;;;;;;5055117;28;20433;-72
2023/04/24 09:31:05;;;;;;;1.97;1.60;;;12.70;99.90;;;;;;5052532;28;20418;-72
2023/04/24 09:33:30;;;;;;;2.47;2.00;;;12.50;99.90;;;;;;5053354;28;20454;-73
2023/04/24 09:35:56;;;;;;;2.90;1.83;;;12.10;99.90;;;;;;5054078;28;20466;-74
2023/04/24 09:38:31;;;;;;;2.40;2.20;;;12.10;99.90;;;;;;5053878;28;20198;-74
2023/04/24 09:41:00;;;;;;;3.40;2.00;;;12.50;99.90;;;;;;5053555;28;20189;-73
2023/04/24 09:43:26;;;;;;;4.57;2.00;;;12.70;99.90;;;;;;5053423;28;20409;-73
2023/04/24 09:45:57;;;;;;;2.27;1.50;;;12.70;99.90;;;;;;5047473;28;20434;-74
2023/04/24 09:48:36;;;;;;;3.50;2.03;;;12.80;99.90;;;;;;5033010;28;20413;-74
2023/04/24 09:51:03;;;;;;;4.33;2.00;;;13.20;99.90;;;;;;5033732;28;20393;-73
2023/04/24 09:53:30;;;;;;;2.90;2.30;;;13.30;99.90;;;;;;5031877;28;20420;-73
2023/04/24 09:56:01;;;;;;;3.00;2.13;;;13.50;99.90;;;;;;5033897;28;20422;-74
2023/04/24 09:58:29;;;;;;;1.83;1.60;;;13.40;99.90;;;;;;5033568;28;20435;-74
2023/04/24 10:00:56;;;;;;;5.23;4.20;;;13.40;99.90;;;;;;5037383;28;20424;-75
2023/04/24 10:03:26;;;;;;;2.40;1.50;;;13.40;99.90;;;;;;5053326;28;20420;-74
2023/04/24 10:05:51;;;;;;;2.77;1.50;;;13.40;99.90;;;;;;5068508;28;20962;-74
2023/04/24 10:08:17;;;;;;;3.33;1.43;;;13.40;99.90;;;;;;5053069;28;20417;-74
2023/04/24 10:10:46;;;;;;;2.33;1.50;;;13.40;99.90;;;;;;5068234;28;20175;-74
2023/04/24 10:13:14;;;;;;;4.10;1.83;;;13.60;99.90;;;;;;5052674;28;20240;-74
2023/04/24 10:15:41;;;;;;;3.37;1.50;;;13.70;99.90;;;;;;5052297;28;20427;-73
2023/04/24 10:18:08;;;;;;;4.03;1.40;;;13.60;99.90;;;;;;5053002;28;20459;-73
2023/04/24 10:20:35;;;;;;;1.60;1.50;;;13.50;99.90;;;;;;5053819;28;20487;-73
2023/04/24 10:23:01;;;;;;;2.07;1.50;;;13.60;99.90;;;;;;5053443;28;20411;-73
2023/04/24 10:25:33;;;;;;;1.80;1.50;;;13.80;99.90;;;;;;5054475;28;20424;-74
2023/04/24 10:28:00;;;;;;;2.37;1.53;;;13.80;98.60;;;;;;5053645;28;20392;-73
2023/04/24 10:30:28;;;;;;;2.33;1.30;;;14.00;98.70;;;;;;5047103;28;20415;-76
2023/04/24 10:32:54;;;;;;;1.77;1.33;;;14.30;98.00;;;;;;5053979;28;20738;-76
2023/04/24 10:35:22;;;;;;;2.67;1.90;;;14.70;96.90;;;;;;5053391;28;20446;-74
2023/04/24 10:37:56;;;;;;;1.90;1.40;;;14.70;97.20;;;;;;5054161;28;20749;-75
2023/04/24 10:40:34;;;;;;;2.70;1.60;;;14.80;97.00;;;;;;5055613;28;20432;-75
2023/04/24 10:43:06;;;;;;;3.13;1.53;;;14.90;97.60;;;;;;5054040;28;20371;-72
2023/04/24 10:45:32;;;;;;;2.50;1.30;;;14.60;97.00;;;;;;5052976;28;20414;-75
2023/04/24 10:48:02;;;;;;;1.97;1.57;;;14.30;97.70;;;;;;5053755;28;20401;-75
2023/04/24 10:50:30;;;;;;;1.40;1.30;;;14.00;97.80;;;;;;5053086;28;20378;-74
2023/04/24 10:53:07;;;;;;;3.43;1.70;;;13.90;98.30;;;;;;5053193;28;20407;-74
2023/04/24 10:55:44;;;;;;;1.90;1.60;;;14.00;99.00;;;;;;5053239;28;20415;-75
2023/04/24 10:58:10;;;;;;;3.17;1.50;;;13.90;98.40;;;;;;5053013;28;20459;-74
2023/04/24 11:00:38;;;;;;;1.03;0.87;;;13.90;98.70;;;;;;5052556;28;20779;-73
2023/04/24 11:03:21;;;;;;;1.60;1.47;;;13.90;98.60;;;;;;5052939;28;20432;-74
2023/04/24 11:05:59;;;;;;;1.40;1.30;;;14.00;98.70;;;;;;5052855;28;20838;-75
2023/04/24 11:08:30;;;;;;;1.97;1.73;;;14.30;99.20;;;;;;5068144;28;20406;-75
2023/04/24 11:11:08;;;;;;;2.83;1.70;;;14.20;98.60;;;;;;5052729;28;20389;-75
2023/04/24 11:13:54;;;;;;;1.97;1.50;;;13.90;99.80;;;;;;5052821;28;20422;-75
2023/04/24 11:16:44;;;;;;;2.80;1.70;;;13.80;99.70;;;;;;5045372;28;20431;-74
2023/04/24 11:19:18;;;;;;;2.00;1.63;;;13.60;99.60;;;;;;5052601;28;20530;-73
2023/04/24 11:21:47;;;;;;;1.63;1.20;;;13.70;99.50;;;;;;5053146;28;20410;-72
2023/04/24 11:24:40;;;;;;;1.70;1.60;;;13.70;99.00;;;;;;5068712;28;20772;-75
2023/04/24 11:27:14;;;;;;;1.83;1.30;;;13.90;99.40;;;;;;5052057;28;20448;-74
2023/04/24 11:29:48;;;;;;;9.90;2.60;;;14.20;98.80;;;;;;5056051;28;20408;-74
2023/04/24 11:32:36;;;;;;;1.67;1.20;;;14.80;98.90;;;;;;5055664;28;20826;-73
2023/04/24 11:35:06;;;;;;;1.70;1.60;;;16.20;96.50;;;;;;5056907;28;20882;-73
2023/04/24 11:37:46;;;;;;;2.23;1.30;;;16.00;95.40;;;;;;5073893;28;20455;-76
2023/04/24 11:40:15;;;;;;;2.90;1.37;;;16.50;95.10;;;;;;5056661;28;20518;-76
2023/04/24 11:42:43;;;;;;;1.60;1.47;;;16.60;94.70;;;;;;5056261;28;20408;-76
2023/04/24 11:45:14;;;;;;;1.97;1.60;;;16.10;95.00;;;;;;5055871;28;20768;-75
2023/04/24 11:47:41;;;;;;;2.07;1.87;;;15.70;95.30;;;;;;5070896;28;20408;-74
2023/04/24 11:50:14;;;;;;;4.00;1.33;;;15.20;97.40;;;;;;5056156;28;20482;-75
2023/04/24 11:52:42;;;;;;;2.47;1.63;;;14.70;96.80;;;;;;5056357;28;20417;-77
2023/04/24 11:55:25;;;;;;;1.70;1.27;;;14.10;98.00;;;;;;5039325;28;20456;-76
2023/04/24 11:57:56;;;;;;;2.90;1.27;;;14.10;98.50;;;;;;5036827;28;20441;-76
2023/04/24 12:00:25;;;;;;;2.90;1.67;;;14.00;98.50;;;;;;5036461;28;20388;-76
2023/04/24 12:03:03;;;;;;;3.87;1.70;;;14.20;99.50;;;;;;5052626;28;20410;-75
2023/04/24 12:05:31;;;;;;;3.37;1.53;;;14.70;99.90;;;;;;5055531;28;20455;-76
2023/04/24 12:07:56;;;;;;;1.20;1.10;;;15.20;98.30;;;;;;5055367;28;20771;-74
2023/04/24 12:10:24;;;;;;;2.23;1.63;;;15.80;97.30;;;;;;5055764;28;20389;-75
2023/04/24 12:12:51;;;;;;;1.83;1.63;;;16.50;97.40;;;;;;5053996;28;20264;-74
2023/04/24 12:15:18;;;;;;;2.03;1.83;;;16.30;95.10;;;;;;5055023;28;20832;-74
2023/04/24 12:17:44;;;;;;;1.40;1.30;;;15.50;96.00;;;;;;5054509;28;20404;-75
2023/04/24 12:20:10;;;;;;;6.00;1.63;;;15.10;96.80;;;;;;5055378;28;20448;-75
2023/04/24 12:22:54;;;;;;;1.27;1.17;;;14.70;97.20;;;;;;5045811;28;20495;-73
2023/04/24 12:25:24;;;;;;;2.30;1.53;;;14.60;97.30;;;;;;5047392;28;20517;-74
2023/04/24 12:28:05;;;;;;;1.40;1.30;;;14.30;98.00;;;;;;5055676;28;20802;-73
2023/04/24 12:30:34;;;;;;;1.40;1.30;;;14.40;97.90;;;;;;5055655;28;20429;-74
2023/04/24 12:33:00;;;;;;;1.93;1.83;;;14.40;97.40;;;;;;5055537;28;20407;-74
2023/04/24 12:35:28;;;;;;;4.13;1.97;;;14.40;97.40;;;;;;5088213;23;20472;-71
2023/04/24 12:37:54;;;;;;;42.40;8.60;;;14.40;97.60;;;;;;5054426;28;20404;-72
2023/04/24 12:40:21;;;;;;;13.57;4.70;;;14.30;96.90;;;;;;5053726;28;20439;-73
2023/04/24 12:42:49;;;;;;;3.70;1.90;;;14.30;97.20;;;;;;5055015;28;20160;-74
2023/04/24 12:45:16;;;;;;;68.03;10.90;;;14.30;96.80;;;;;;5054388;28;20436;-73